Time;durP1;ratioP1;P1;durP2;ratioP2;P2;SDS_P1;SDS_P2;PMS_P1;PMS_P2;Temp;Humidity;BMP_temperature;BMP_pressure;BME280_temperature;BME280_humidity;BME280_pressure;Samples;Min_cycle;Max_cycle;Signal;HPM_P1;HPM_P2
2022/02/15 06:34:21;;;;;;;19.53;12.23;;;7.30;1.00;;;;;;5071718;28;20184;-69
2022/02/15 06:36:47;;;;;;;21.63;12.10;;;7.20;73.50;;;;;;5071778;28;20202;-69
2022/02/15 06:39:14;;;;;;;21.30;11.83;;;7.20;99.90;;;;;;5071749;28;20289;-69
2022/02/15 06:41:41;;;;;;;26.13;13.27;;;7.20;99.90;;;;;;5071788;28;20285;-69
2022/02/15 06:44:08;;;;;;;20.70;12.03;;;7.20;76.90;;;;;;5071784;28;20207;-69
2022/02/15 06:46:36;;;;;;;20.03;12.80;;;7.20;16.60;;;;;;5083670;28;20213;-68
2022/02/15 06:49:03;;;;;;;19.40;12.57;;;7.20;1.00;;;;;;5091671;28;20205;-67
2022/02/15 06:51:31;;;;;;;21.23;13.37;;;7.20;1.00;;;;;;5092098;28;20209;-68
2022/02/15 06:53:58;;;;;;;22.00;11.97;;;7.20;1.00;;;;;;5091797;28;20206;-67
2022/02/15 06:56:25;;;;;;;21.23;12.20;;;7.20;80.60;;;;;;5091592;28;20222;-68
2022/02/15 06:58:52;;;;;;;19.90;12.47;;;7.20;99.90;;;;;;5092323;28;20652;-68
2022/02/15 07:01:19;;;;;;;19.33;11.87;;;7.20;99.90;;;;;;5091685;28;20209;-68
2022/02/15 07:03:45;;;;;;;21.37;13.40;;;7.10;99.90;;;;;;5091827;28;20294;-68
2022/02/15 07:06:12;;;;;;;20.23;12.47;;;7.20;99.90;;;;;;5091572;28;20197;-68
2022/02/15 07:08:41;;;;;;;21.77;14.07;;;7.20;99.90;;;;;;5091910;28;20212;-68
2022/02/15 07:11:07;;;;;;;21.67;13.00;;;7.20;99.90;;;;;;5093455;28;20819;-68
2022/02/15 07:13:34;;;;;;;21.43;12.20;;;7.10;99.90;;;;;;5095728;28;20213;-68
2022/02/15 07:16:01;;;;;;;25.83;13.03;;;7.20;99.90;;;;;;5095490;28;20221;-68
2022/02/15 07:18:28;;;;;;;22.07;13.30;;;7.10;1.00;;;;;;5095534;28;20202;-68
2022/02/15 07:20:55;;;;;;;20.13;12.93;;;7.10;1.00;;;;;;5095695;28;20647;-68
2022/02/15 07:23:22;;;;;;;22.03;13.13;;;7.10;1.00;;;;;;5095568;28;20206;-68
2022/02/15 07:25:50;;;;;;;23.40;12.43;;;7.10;1.00;;;;;;5095183;28;20647;-68
2022/02/15 07:28:17;;;;;;;21.47;12.10;;;7.10;1.00;;;;;;5095243;28;20211;-68
2022/02/15 07:30:44;;;;;;;20.10;12.50;;;7.10;1.00;;;;;;5095461;28;20212;-68
2022/02/15 07:33:10;;;;;;;20.33;12.90;;;7.00;1.00;;;;;;5095232;28;20648;-68
2022/02/15 07:35:37;;;;;;;18.70;11.97;;;7.00;1.00;;;;;;5095018;28;20675;-68
2022/02/15 07:38:04;;;;;;;20.20;12.80;;;7.00;1.00;;;;;;5095126;28;20210;-68
2022/02/15 07:40:31;;;;;;;19.90;12.80;;;7.00;1.00;;;;;;5095269;28;20522;-68
2022/02/15 07:43:00;;;;;;;21.17;12.37;;;7.00;1.00;;;;;;5095584;28;20204;-68
2022/02/15 07:45:27;;;;;;;24.17;13.37;;;7.00;1.00;;;;;;5094777;28;20292;-68
2022/02/15 07:47:54;;;;;;;22.13;13.30;;;7.10;16.50;;;;;;5094854;28;20717;-68
2022/02/15 07:50:24;;;;;;;22.07;12.30;;;7.10;1.00;;;;;;5094883;28;20202;-68
2022/02/15 07:52:53;;;;;;;23.47;12.83;;;7.10;1.00;;;;;;5094725;28;20198;-68
2022/02/15 07:55:20;;;;;;;19.00;12.00;;;7.20;1.00;;;;;;5094739;28;20705;-68
2022/02/15 07:57:48;;;;;;;20.60;13.20;;;7.20;1.00;;;;;;5095027;28;20652;-68
2022/02/15 08:00:21;;;;;;;21.43;14.10;;;7.30;99.90;;;;;;5094712;28;20209;-68
2022/02/15 08:02:48;;;;;;;24.83;14.40;;;7.40;99.90;;;;;;5094515;28;20215;-68
2022/02/15 08:05:15;;;;;;;25.70;14.03;;;7.40;99.90;;;;;;5094369;28;20216;-68
2022/02/15 08:07:46;;;;;;;23.57;14.40;;;7.40;99.90;;;;;;5094691;28;20205;-68
2022/02/15 08:10:14;;;;;;;22.80;14.00;;;7.50;99.90;;;;;;5094607;28;20216;-74
2022/02/15 08:12:41;;;;;;;25.57;14.83;;;7.50;75.00;;;;;;5094574;28;20205;-74
2022/02/15 08:15:09;;;;;;;23.10;15.10;;;7.60;8.50;;;;;;5094016;28;20225;-74
2022/02/15 08:17:37;;;;;;;23.83;15.47;;;7.60;1.00;;;;;;5094445;28;20206;-74
2022/02/15 08:20:05;;;;;;;24.23;15.87;;;7.70;1.00;;;;;;5094216;28;20209;-74
2022/02/15 08:22:32;;;;;;;24.00;14.50;;;7.70;1.00;;;;;;5093348;28;20728;-74
2022/02/15 08:24:59;;;;;;;22.23;14.60;;;7.80;1.00;;;;;;5094130;28;20206;-74
2022/02/15 08:27:26;;;;;;;24.67;14.77;;;7.80;1.00;;;;;;5094746;28;20201;-74
2022/02/15 08:29:53;;;;;;;23.83;15.03;;;7.90;1.00;;;;;;5094225;28;20197;-74
2022/02/15 08:32:20;;;;;;;23.10;14.47;;;8.00;1.00;;;;;;5094020;28;20197;-74
2022/02/15 08:34:48;;;;;;;22.77;14.40;;;8.20;99.90;;;;;;5094414;28;20659;-74
2022/02/15 08:37:15;;;;;;;21.77;13.70;;;9.40;99.90;;;;;;5093908;28;20232;-74
2022/02/15 08:39:42;;;;;;;19.77;13.67;;;9.00;1.00;;;;;;5094079;28;20205;-74
2022/02/15 08:42:09;;;;;;;21.80;13.40;;;8.80;99.90;;;;;;5093995;28;20205;-74
2022/02/15 08:44:37;;;;;;;20.70;13.47;;;8.80;99.90;;;;;;5093985;28;20293;-74
2022/02/15 08:47:06;;;;;;;20.83;12.27;;;8.80;99.90;;;;;;5071679;28;20209;-74
2022/02/15 08:49:33;;;;;;;20.30;13.13;;;8.80;99.90;;;;;;5082953;28;20214;-74
2022/02/15 08:52:01;;;;;;;17.90;12.37;;;8.90;99.90;;;;;;5076251;28;20206;-74
2022/02/15 08:54:28;;;;;;;23.23;12.90;;;9.00;1.00;;;;;;5073277;28;20217;-74
2022/02/15 08:56:55;;;;;;;17.70;11.13;;;8.90;64.60;;;;;;5072797;28;20226;-74
2022/02/15 08:59:22;;;;;;;17.33;11.43;;;8.90;99.90;;;;;;5072856;28;20198;-74
2022/02/15 09:01:49;;;;;;;19.70;12.57;;;8.80;99.90;;;;;;5073220;28;20648;-74
2022/02/15 09:04:16;;;;;;;22.00;12.10;;;8.90;99.90;;;;;;5072858;28;20210;-74
2022/02/15 09:06:43;;;;;;;20.00;11.83;;;9.00;1.00;;;;;;5073422;28;20719;-74
2022/02/15 09:09:13;;;;;;;15.93;10.87;;;8.90;1.00;;;;;;5072171;28;20625;-74
2022/02/15 09:11:40;;;;;;;17.57;10.77;;;8.90;28.20;;;;;;5072546;28;20214;-74
2022/02/15 09:14:07;;;;;;;16.07;10.00;;;8.80;1.00;;;;;;5072447;28;20213;-74
2022/02/15 09:16:35;;;;;;;17.50;10.20;;;8.80;1.00;;;;;;5071963;28;20226;-74
2022/02/15 09:19:01;;;;;;;17.53;10.37;;;8.80;1.00;;;;;;5073025;28;20236;-74
2022/02/15 09:21:28;;;;;;;18.70;10.80;;;8.80;1.00;;;;;;5063920;28;20221;-74
2022/02/15 09:23:55;;;;;;;15.63;10.17;;;8.70;99.90;;;;;;5072168;28;20202;-74
2022/02/15 09:26:23;;;;;;;18.03;10.57;;;8.70;99.90;;;;;;5071219;28;20574;-74
2022/02/15 09:28:50;;;;;;;15.20;9.93;;;8.80;99.90;;;;;;5072966;28;20206;-74
2022/02/15 09:31:17;;;;;;;15.07;8.57;;;8.70;1.00;;;;;;5083147;28;20201;-74
2022/02/15 09:33:44;;;;;;;17.13;9.43;;;8.80;1.00;;;;;;5074974;28;20233;-74
2022/02/15 09:36:11;;;;;;;15.10;9.57;;;8.90;1.00;;;;;;5085375;28;20698;-74
2022/02/15 09:38:38;;;;;;;18.57;9.90;;;8.90;1.00;;;;;;5073169;28;20292;-74
2022/02/15 09:41:07;;;;;;;14.33;8.27;;;8.90;1.00;;;;;;5092255;28;20283;-74
2022/02/15 09:43:37;;;;;;;13.30;8.00;;;9.00;1.00;;;;;;5091778;28;20644;-74
2022/02/15 09:46:06;;;;;;;12.50;7.40;;;9.00;1.00;;;;;;5091081;28;20189;-74
2022/02/15 09:48:33;;;;;;;14.67;6.90;;;9.10;1.00;;;;;;5091654;28;20667;-74
2022/02/15 09:51:00;;;;;;;14.20;7.23;;;9.10;1.00;;;;;;5092168;28;20323;-74
2022/02/15 09:53:27;;;;;;;12.53;6.67;;;8.90;1.00;;;;;;5083955;28;20214;-74
2022/02/15 09:55:54;;;;;;;12.57;7.47;;;9.10;1.00;;;;;;5071511;28;20684;-74
2022/02/15 09:58:21;;;;;;;11.00;7.20;;;9.10;1.00;;;;;;5071235;28;20203;-74
2022/02/15 10:00:49;;;;;;;13.60;7.03;;;9.10;1.00;;;;;;5071266;28;20209;-74
2022/02/15 10:03:16;;;;;;;12.70;6.93;;;9.20;1.00;;;;;;5072170;28;20584;-74
2022/02/15 10:05:48;;;;;;;11.57;6.40;;;9.10;1.00;;;;;;5071681;28;20648;-74
2022/02/15 10:08:16;;;;;;;11.77;6.27;;;9.20;1.00;;;;;;5071927;28;20198;-74
2022/02/15 10:10:43;;;;;;;12.13;6.83;;;9.30;1.00;;;;;;5072083;28;20206;-74
2022/02/15 10:13:14;;;;;;;10.10;6.43;;;9.30;1.00;;;;;;5071038;28;20214;-74
2022/02/15 10:15:44;;;;;;;11.10;6.57;;;9.20;99.90;;;;;;5070342;28;20212;-74
2022/02/15 10:18:13;;;;;;;11.33;6.43;;;9.20;1.00;;;;;;5051923;28;20210;-74
2022/02/15 10:20:43;;;;;;;11.30;6.77;;;9.20;1.00;;;;;;5051243;28;20203;-74
2022/02/15 10:23:18;;;;;;;10.90;7.33;;;9.10;1.00;;;;;;5071565;28;20205;-74
2022/02/15 10:25:46;;;;;;;11.87;7.10;;;9.20;1.00;;;;;;5071126;28;20201;-74
2022/02/15 10:28:15;;;;;;;12.33;7.33;;;9.30;1.00;;;;;;5071039;28;20209;-74
2022/02/15 10:30:47;;;;;;;12.27;7.83;;;9.30;1.00;;;;;;5071160;28;20569;-75
2022/02/15 10:33:16;;;;;;;11.37;7.50;;;9.30;1.00;;;;;;5070753;28;20206;-74
2022/02/15 10:35:53;;;;;;;12.17;8.17;;;9.40;1.00;;;;;;5070228;28;20213;-74
2022/02/15 10:38:28;;;;;;;11.47;8.03;;;9.30;99.90;;;;;;5070887;28;20297;-74
2022/02/15 10:41:00;;;;;;;12.03;8.03;;;9.30;99.90;;;;;;5070849;28;20197;-74
2022/02/15 10:43:27;;;;;;;14.93;9.37;;;9.40;99.90;;;;;;5071537;28;20214;-74
2022/02/15 10:45:54;;;;;;;14.80;9.20;;;9.40;1.00;;;;;;5072207;28;20502;-74
2022/02/15 10:48:33;;;;;;;16.47;10.23;;;9.40;1.00;;;;;;5075370;28;20612;-74
2022/02/15 10:51:00;;;;;;;16.30;10.13;;;9.40;99.90;;;;;;5074807;28;20293;-74
2022/02/15 10:53:28;;;;;;;17.50;10.13;;;9.40;99.90;;;;;;5075044;28;20259;-74
2022/02/15 10:55:55;;;;;;;18.27;11.20;;;9.40;99.90;;;;;;5075117;28;20216;-74
2022/02/15 10:58:22;;;;;;;18.70;10.73;;;9.50;1.00;;;;;;5075212;28;20206;-74
2022/02/15 11:00:50;;;;;;;19.23;12.00;;;9.50;1.00;;;;;;5074371;28;20210;-74
2022/02/15 11:03:21;;;;;;;17.57;11.00;;;9.60;1.00;;;;;;5074644;28;20209;-74
2022/02/15 11:05:49;;;;;;;20.43;11.60;;;9.60;99.90;;;;;;5074364;28;20206;-74
2022/02/15 11:08:17;;;;;;;21.83;12.70;;;9.40;1.00;;;;;;5074591;28;20246;-74
2022/02/15 11:10:49;;;;;;;19.67;11.63;;;9.30;1.00;;;;;;5074433;28;20214;-74
2022/02/15 11:13:16;;;;;;;19.03;11.27;;;9.30;1.00;;;;;;5075150;28;20675;-74
2022/02/15 11:15:43;;;;;;;19.03;10.40;;;9.30;1.00;;;;;;5074341;28;20215;-74
2022/02/15 11:18:12;;;;;;;14.13;9.27;;;9.20;1.00;;;;;;5074127;28;20235;-74
2022/02/15 11:20:54;;;;;;;13.40;7.70;;;9.30;99.90;;;;;;5074067;28;20252;-74
2022/02/15 11:23:23;;;;;;;13.27;6.83;;;9.30;25.90;;;;;;5073757;28;20206;-74
2022/02/15 11:25:52;;;;;;;7.27;4.83;;;9.40;1.00;;;;;;5074452;28;20667;-74
2022/02/15 11:28:20;;;;;;;7.53;4.83;;;9.50;1.00;;;;;;5074977;28;20202;-74
2022/02/15 11:30:56;;;;;;;7.63;4.90;;;9.60;1.00;;;;;;5074113;28;20210;-74
2022/02/15 11:33:25;;;;;;;9.20;5.77;;;10.00;1.00;;;;;;5074105;28;20202;-75
2022/02/15 11:35:53;;;;;;;10.90;6.47;;;10.90;1.00;;;;;;5073432;28;20571;-74
2022/02/15 11:38:22;;;;;;;12.77;8.30;;;10.90;99.90;;;;;;5073818;28;20212;-74
2022/02/15 11:41:01;;;;;;;16.40;9.67;;;10.90;1.00;;;;;;5074154;28;20214;-74
2022/02/15 11:43:29;;;;;;;17.73;10.13;;;11.00;1.00;;;;;;5073787;28;20252;-75
2022/02/15 11:45:56;;;;;;;18.50;11.07;;;11.20;1.00;;;;;;5073751;28;20206;-75
2022/02/15 11:48:35;;;;;;;18.33;11.00;;;11.10;99.90;;;;;;5073016;28;20406;-74
2022/02/15 11:51:02;;;;;;;18.40;11.43;;;10.90;1.00;;;;;;5074227;28;20256;-74
2022/02/15 11:53:30;;;;;;;17.83;11.00;;;10.80;1.00;;;;;;5073570;28;20733;-74
2022/02/15 11:55:57;;;;;;;18.07;11.23;;;10.80;1.00;;;;;;5074010;28;20268;-74
2022/02/15 11:58:24;;;;;;;18.90;11.37;;;10.90;1.00;;;;;;5073770;28;20202;-75
2022/02/15 12:00:52;;;;;;;19.37;12.27;;;11.00;1.00;;;;;;5072506;28;20547;-75
2022/02/15 12:03:20;;;;;;;17.47;10.83;;;10.70;1.00;;;;;;5074436;28;20614;-75
2022/02/15 12:05:47;;;;;;;18.27;11.20;;;10.80;1.00;;;;;;5073199;28;20533;-75
2022/02/15 12:08:15;;;;;;;17.10;10.70;;;10.60;1.00;;;;;;5085341;28;20186;-75
2022/02/15 12:10:43;;;;;;;17.53;11.27;;;10.40;1.00;;;;;;5090429;28;20194;-76
2022/02/15 12:13:17;;;;;;;18.13;10.87;;;10.30;1.00;;;;;;5072882;28;20202;-75
2022/02/15 12:15:48;;;;;;;19.53;12.33;;;10.50;1.00;;;;;;5071752;28;20202;-76
2022/02/15 12:18:15;;;;;;;21.60;13.87;;;10.50;1.00;;;;;;5070229;28;20698;-76
2022/02/15 12:20:42;;;;;;;21.13;13.80;;;10.30;1.00;;;;;;5072467;28;20207;-75
2022/02/15 12:23:09;;;;;;;20.47;13.60;;;10.20;1.00;;;;;;5072475;28;20206;-75
2022/02/15 12:25:48;;;;;;;19.13;13.20;;;10.10;1.00;;;;;;5072456;28;20652;-75
2022/02/15 12:28:22;;;;;;;21.17;14.60;;;10.00;1.00;;;;;;5073111;28;20198;-75
2022/02/15 12:30:49;;;;;;;22.73;15.97;;;10.00;1.00;;;;;;5073480;28;20210;-75
2022/02/15 12:33:17;;;;;;;20.93;13.87;;;10.10;1.00;;;;;;5064806;28;20555;-75
2022/02/15 12:35:44;;;;;;;19.83;12.30;;;10.10;1.00;;;;;;5067831;28;20276;-75
2022/02/15 12:38:11;;;;;;;18.20;12.37;;;10.10;1.00;;;;;;5070859;28;20211;-75
2022/02/15 12:40:39;;;;;;;18.33;12.03;;;10.00;1.00;;;;;;5070919;28;20707;-75
2022/02/15 12:43:07;;;;;;;18.30;11.60;;;10.00;1.00;;;;;;5068147;28;20202;-75
2022/02/15 12:45:41;;;;;;;19.07;12.37;;;10.10;1.00;;;;;;5061967;28;20202;-75
2022/02/15 12:48:10;;;;;;;17.60;12.03;;;10.00;1.00;;;;;;5067156;28;20213;-75
2022/02/15 12:50:38;;;;;;;18.93;12.30;;;10.00;1.00;;;;;;5066204;28;20272;-74
2022/02/15 12:53:06;;;;;;;16.80;12.10;;;10.00;1.00;;;;;;5072878;28;20207;-74
2022/02/15 12:55:33;;;;;;;20.00;13.23;;;9.90;1.00;;;;;;5075689;28;20264;-75
2022/02/15 12:58:00;;;;;;;16.83;12.07;;;9.90;1.00;;;;;;5067572;28;20229;-75
2022/02/15 13:00:28;;;;;;;16.77;11.37;;;9.70;1.00;;;;;;5072831;28;20202;-75
2022/02/15 13:02:56;;;;;;;18.63;11.63;;;9.70;1.00;;;;;;5065164;28;20199;-75
2022/02/15 13:05:32;;;;;;;16.60;10.83;;;9.70;1.00;;;;;;5078537;28;20231;-74
2022/02/15 13:07:59;;;;;;;14.53;9.77;;;9.60;1.00;;;;;;5070057;28;20201;-74
2022/02/15 13:10:27;;;;;;;14.93;10.20;;;9.50;1.00;;;;;;5069299;28;20206;-75
2022/02/15 13:13:07;;;;;;;14.63;10.23;;;9.50;1.00;;;;;;5074167;28;20203;-74
2022/02/15 13:15:36;;;;;;;18.27;10.87;;;9.50;1.00;;;;;;5066861;28;20208;-74
2022/02/15 13:18:07;;;;;;;12.67;9.33;;;9.50;1.00;;;;;;5061261;28;20258;-74
2022/02/15 13:20:39;;;;;;;13.00;8.60;;;9.40;1.00;;;;;;5064371;28;20540;-74
2022/02/15 13:23:08;;;;;;;12.70;8.23;;;9.30;1.00;;;;;;5064818;28;20289;-74
2022/02/15 13:25:39;;;;;;;11.67;8.53;;;9.20;1.00;;;;;;5066003;28;20207;-75
2022/02/15 13:28:06;;;;;;;13.87;9.00;;;9.20;1.00;;;;;;5069120;28;20234;-75
2022/02/15 13:30:33;;;;;;;14.57;9.30;;;9.20;1.00;;;;;;5066341;28;20210;-75
2022/02/15 13:33:04;;;;;;;15.23;9.47;;;9.30;1.00;;;;;;5066589;28;20221;-75
2022/02/15 13:35:32;;;;;;;12.20;8.40;;;9.30;1.00;;;;;;5068896;28;20244;-75
2022/02/15 13:37:59;;;;;;;12.63;8.50;;;9.30;1.00;;;;;;5070652;28;20287;-75
2022/02/15 13:40:28;;;;;;;11.30;8.40;;;9.30;1.00;;;;;;5065439;28;20206;-75
2022/02/15 13:42:55;;;;;;;12.17;8.80;;;9.40;1.00;;;;;;5071163;28;20204;-75
2022/02/15 13:45:23;;;;;;;12.07;8.63;;;9.40;1.00;;;;;;5077887;28;20198;-74
2022/02/15 13:47:50;;;;;;;13.07;9.03;;;9.40;1.00;;;;;;5066692;28;20262;-74
2022/02/15 13:50:18;;;;;;;14.97;9.00;;;9.40;1.00;;;;;;5062859;28;20202;-75
2022/02/15 13:52:45;;;;;;;16.30;8.43;;;9.40;1.00;;;;;;5065376;28;20256;-75
2022/02/15 13:55:13;;;;;;;12.73;8.63;;;9.50;1.00;;;;;;5067034;28;20556;-75
2022/02/15 13:57:41;;;;;;;16.57;10.20;;;9.50;1.00;;;;;;5066071;28;20221;-74
2022/02/15 14:00:11;;;;;;;13.90;9.03;;;9.50;1.00;;;;;;5072759;28;20213;-74
2022/02/15 14:02:39;;;;;;;15.10;9.83;;;9.50;1.00;;;;;;5061970;28;20218;-74
2022/02/15 14:05:10;;;;;;;12.80;8.93;;;9.50;1.00;;;;;;5067210;28;20246;-75
2022/02/15 14:07:39;;;;;;;11.53;8.20;;;9.50;1.00;;;;;;5064925;28;20237;-74
2022/02/15 14:10:08;;;;;;;13.07;8.63;;;9.50;1.00;;;;;;5064196;28;20237;-74
2022/02/15 14:12:37;;;;;;;9.90;7.67;;;9.50;1.00;;;;;;5071860;28;20236;-74
2022/02/15 14:15:08;;;;;;;14.23;8.27;;;9.40;1.00;;;;;;5068686;28;20202;-74
2022/02/15 14:17:57;;;;;;;12.17;7.53;;;9.40;1.00;;;;;;5067569;28;20272;-75
2022/02/15 14:20:24;;;;;;;12.07;7.83;;;9.30;1.00;;;;;;5064625;28;20260;-74
2022/02/15 14:22:53;;;;;;;11.27;7.83;;;9.30;1.00;;;;;;5070479;28;20640;-74
2022/02/15 14:25:20;;;;;;;11.87;8.10;;;9.30;1.00;;;;;;5067226;28;20667;-74
2022/02/15 14:27:48;;;;;;;11.83;7.10;;;9.40;1.00;;;;;;5066729;28;20202;-74
2022/02/15 14:30:18;;;;;;;13.07;8.70;;;9.40;1.00;;;;;;5067639;28;20207;-74
2022/02/15 14:32:48;;;;;;;12.17;8.40;;;9.40;1.00;;;;;;5068221;28;20217;-74
2022/02/15 14:35:16;;;;;;;13.90;9.17;;;9.60;1.00;;;;;;5068679;28;20202;-74
2022/02/15 14:37:45;;;;;;;15.63;9.70;;;9.70;1.00;;;;;;5067712;28;20699;-74
2022/02/15 14:40:14;;;;;;;15.20;9.33;;;9.80;99.90;;;;;;5069905;28;20202;-75
2022/02/15 14:42:42;;;;;;;12.83;7.97;;;9.70;99.90;;;;;;5064596;28;20198;-74
2022/02/15 14:45:11;;;;;;;12.13;8.00;;;9.60;99.90;;;;;;5068902;28;20211;-74
2022/02/15 14:47:39;;;;;;;15.03;8.33;;;9.70;99.90;;;;;;5073878;28;20214;-74
2022/02/15 14:50:07;;;;;;;12.50;7.77;;;9.80;99.90;;;;;;5075099;28;20526;-75
2022/02/15 14:52:36;;;;;;;9.87;6.70;;;9.70;99.90;;;;;;5067421;28;20545;-74
2022/02/15 14:55:05;;;;;;;13.83;7.67;;;9.50;99.90;;;;;;5075830;28;20598;-74
2022/02/15 14:57:34;;;;;;;12.00;6.80;;;9.60;99.90;;;;;;5069061;28;20241;-75
2022/02/15 15:00:03;;;;;;;10.83;6.90;;;9.40;99.90;;;;;;5062495;28;20206;-75
2022/02/15 15:02:31;;;;;;;11.87;7.07;;;9.30;99.90;;;;;;5065097;28;20206;-75
2022/02/15 15:04:59;;;;;;;12.37;7.50;;;9.10;99.90;;;;;;5070844;28;20244;-74
2022/02/15 15:07:26;;;;;;;12.43;7.63;;;9.00;99.90;;;;;;5072177;28;20698;-74
2022/02/15 15:09:54;;;;;;;14.07;7.27;;;8.90;1.00;;;;;;5064823;28;20207;-75
2022/02/15 15:12:21;;;;;;;12.00;7.00;;;8.80;1.00;;;;;;5057959;28;20202;-74
2022/02/15 15:14:50;;;;;;;12.37;8.17;;;8.90;1.00;;;;;;5062819;28;20357;-74
2022/02/15 15:17:18;;;;;;;12.90;7.83;;;8.90;1.00;;;;;;5058283;28;20202;-74
2022/02/15 15:19:46;;;;;;;11.67;7.93;;;9.00;1.00;;;;;;5069571;28;20310;-74
2022/02/15 15:22:17;;;;;;;13.67;8.47;;;8.90;1.00;;;;;;5065340;28;20613;-74
2022/02/15 15:24:46;;;;;;;13.80;7.47;;;8.70;1.00;;;;;;5070245;28;20202;-74
2022/02/15 15:27:14;;;;;;;14.07;7.90;;;8.60;1.00;;;;;;5068597;28;20214;-74
2022/02/15 15:29:41;;;;;;;12.10;7.43;;;8.60;1.00;;;;;;5065798;28;20242;-74
2022/02/15 15:32:10;;;;;;;13.37;8.50;;;8.60;1.00;;;;;;5068447;28;20199;-74
2022/02/15 15:34:38;;;;;;;16.63;8.23;;;8.60;1.00;;;;;;5072540;28;20209;-74
2022/02/15 15:37:05;;;;;;;12.83;8.27;;;8.60;1.00;;;;;;5069135;28;20587;-74
2022/02/15 15:39:33;;;;;;;13.23;8.60;;;8.70;1.00;;;;;;5073684;28;20667;-74
2022/02/15 15:42:03;;;;;;;12.20;8.30;;;8.60;1.00;;;;;;5073366;28;20206;-74
2022/02/15 15:44:30;;;;;;;13.23;8.80;;;8.60;1.00;;;;;;5076541;28;20694;-74
2022/02/15 15:46:58;;;;;;;12.33;8.03;;;8.50;1.00;;;;;;5082445;28;20617;-74
2022/02/15 15:49:26;;;;;;;11.73;7.80;;;8.40;1.00;;;;;;5073719;28;20201;-74
2022/02/15 15:51:54;;;;;;;15.53;8.30;;;8.40;1.00;;;;;;5073309;28;20245;-74
2022/02/15 15:54:21;;;;;;;13.17;7.57;;;8.30;1.00;;;;;;5073625;28;20206;-74
2022/02/15 15:56:48;;;;;;;12.17;7.53;;;8.30;1.00;;;;;;5075618;28;20194;-74
2022/02/15 15:59:16;;;;;;;10.50;6.70;;;8.30;1.00;;;;;;5074432;28;20409;-74
2022/02/15 16:01:44;;;;;;;12.27;7.00;;;8.30;1.00;;;;;;5070791;28;20297;-74
2022/02/15 16:04:13;;;;;;;10.63;6.70;;;8.30;1.00;;;;;;5054481;28;20249;-74
2022/02/15 16:06:45;;;;;;;10.97;6.33;;;8.20;1.00;;;;;;5067139;28;20699;-74
2022/02/15 16:09:13;;;;;;;11.37;6.47;;;8.10;1.00;;;;;;5074590;28;20217;-74
2022/02/15 16:11:43;;;;;;;13.40;7.50;;;8.10;1.00;;;;;;5071511;28;20289;-74
2022/02/15 16:14:10;;;;;;;10.13;6.13;;;8.00;1.00;;;;;;5072703;28;20743;-74
2022/02/15 16:16:38;;;;;;;8.70;6.10;;;8.00;1.00;;;;;;5073497;28;20198;-74
2022/02/15 16:19:06;;;;;;;10.43;6.73;;;7.90;6.00;;;;;;5062258;28;20237;-74
2022/02/15 16:21:33;;;;;;;9.40;6.37;;;7.80;12.90;;;;;;5074786;28;20624;-75
2022/02/15 16:24:03;;;;;;;22.33;13.43;;;7.70;99.90;;;;;;5076517;28;20648;-74
2022/02/15 16:26:30;;;;;;;18.03;9.33;;;7.60;99.90;;;;;;5067333;28;20672;-74
2022/02/15 16:28:57;;;;;;;9.77;5.80;;;7.50;99.90;;;;;;5070480;28;20211;-74
2022/02/15 16:31:43;;;;;;;9.27;5.40;;;7.50;99.90;;;;;;5066259;28;20198;-74
2022/02/15 16:34:10;;;;;;;7.87;5.53;;;7.50;99.90;;;;;;5064976;28;20605;-74
2022/02/15 16:36:37;;;;;;;9.33;5.63;;;7.50;99.90;;;;;;5072210;28;20210;-74
2022/02/15 16:39:06;;;;;;;8.40;6.00;;;7.40;99.90;;;;;;5079492;28;20229;-74
2022/02/15 16:41:37;;;;;;;20.83;11.70;;;7.30;99.90;;;;;;5069746;28;20698;-75
2022/02/15 16:44:05;;;;;;;16.17;7.87;;;7.10;99.90;;;;;;5066676;28;20648;-75
2022/02/15 16:46:33;;;;;;;10.43;5.90;;;7.00;1.00;;;;;;5071757;28;20686;-75
2022/02/15 16:49:00;;;;;;;10.53;5.70;;;7.10;99.90;;;;;;5052206;28;20570;-75
2022/02/15 16:51:27;;;;;;;31.87;18.53;;;7.10;99.90;;;;;;5053771;28;20202;-75
2022/02/15 16:53:55;;;;;;;57.37;30.27;;;6.80;99.90;;;;;;5051490;28;20242;-75
2022/02/15 16:56:24;;;;;;;31.03;16.60;;;6.70;1.00;;;;;;5053133;28;20207;-75
2022/02/15 16:58:52;;;;;;;11.63;6.73;;;6.70;1.00;;;;;;5050513;28;20238;-75
2022/02/15 17:01:20;;;;;;;7.93;4.97;;;6.70;99.90;;;;;;5047493;28;20238;-75
2022/02/15 17:03:47;;;;;;;10.97;5.70;;;7.00;1.00;;;;;;5051292;28;20215;-75
2022/02/15 17:06:16;;;;;;;8.23;5.80;;;7.00;1.00;;;;;;5056298;28;20210;-75
2022/02/15 17:08:43;;;;;;;7.57;4.63;;;6.90;1.00;;;;;;5050858;28;20598;-75
2022/02/15 17:11:10;;;;;;;5.70;4.73;;;6.90;99.90;;;;;;5049259;28;20648;-75
2022/02/15 17:13:40;;;;;;;6.57;4.43;;;6.80;1.00;;;;;;5048355;28;20199;-75
2022/02/15 17:16:08;;;;;;;6.30;4.53;;;6.70;1.00;;;;;;5052597;28;20249;-75
2022/02/15 17:18:36;;;;;;;7.93;4.47;;;6.60;1.00;;;;;;5051810;28;20639;-75
2022/02/15 17:21:05;;;;;;;8.63;4.60;;;6.50;1.00;;;;;;5048057;28;20199;-75
2022/02/15 17:23:33;;;;;;;7.27;4.70;;;6.50;1.00;;;;;;5048658;28;20217;-74
2022/02/15 17:26:00;;;;;;;5.03;4.50;;;6.40;1.00;;;;;;5052112;28;20243;-75
2022/02/15 17:28:27;;;;;;;6.57;4.77;;;6.30;1.00;;;;;;5051513;28;20286;-75
2022/02/15 17:30:56;;;;;;;8.93;5.37;;;6.30;1.00;;;;;;5042830;28;20557;-75
2022/02/15 17:33:23;;;;;;;7.97;4.77;;;6.50;1.00;;;;;;5049714;28;20250;-75
2022/02/15 17:35:50;;;;;;;6.17;4.80;;;6.40;1.00;;;;;;5051814;28;20289;-75
2022/02/15 17:38:17;;;;;;;6.23;4.30;;;6.40;54.30;;;;;;5046981;28;20236;-74
2022/02/15 17:40:44;;;;;;;5.70;4.57;;;6.60;1.00;;;;;;5051902;28;20199;-75
2022/02/15 17:43:12;;;;;;;6.13;4.37;;;6.60;1.00;;;;;;5051093;28;20195;-75
2022/02/15 17:45:40;;;;;;;5.13;4.20;;;6.50;1.00;;;;;;5047704;28;20215;-75
2022/02/15 17:48:09;;;;;;;7.13;4.27;;;6.70;1.00;;;;;;5059194;28;20202;-74
2022/02/15 17:50:37;;;;;;;7.33;4.30;;;6.70;1.00;;;;;;5054792;28;20206;-75
2022/02/15 17:53:05;;;;;;;6.47;3.97;;;6.70;1.00;;;;;;5046993;28;20235;-73
2022/02/15 17:55:32;;;;;;;4.93;3.57;;;6.70;1.00;;;;;;5049820;28;20207;-73
2022/02/15 17:58:03;;;;;;;8.37;3.80;;;6.70;1.00;;;;;;5141264;23;20690;-75
2022/02/15 18:00:30;;;;;;;5.37;3.70;;;6.80;1.00;;;;;;5024846;28;20220;-74
2022/02/15 18:02:56;;;;;;;4.87;3.37;;;6.80;1.00;;;;;;5018530;28;20487;-75
2022/02/15 18:05:25;;;;;;;5.30;3.70;;;6.80;1.00;;;;;;5026047;28;20208;-75
2022/02/15 18:07:52;;;;;;;7.53;3.73;;;6.80;1.00;;;;;;5032296;28;20309;-74
2022/02/15 18:10:19;;;;;;;6.17;3.23;;;6.80;99.90;;;;;;5046073;22;20228;-75
2022/02/15 18:12:46;;;;;;;4.90;3.20;;;6.90;99.90;;;;;;5044896;28;20604;-75
2022/02/15 18:15:14;;;;;;;8.60;4.70;;;6.90;99.90;;;;;;5059473;28;20203;-75
2022/02/15 18:17:40;;;;;;;5.63;4.10;;;6.80;99.90;;;;;;5046270;28;20210;-72
2022/02/15 18:20:09;;;;;;;5.63;3.60;;;6.80;99.90;;;;;;5050940;28;20219;-73
2022/02/15 18:22:38;;;;;;;5.43;3.17;;;6.80;99.90;;;;;;5047340;28;20465;-73
2022/02/15 18:25:06;;;;;;;6.40;3.53;;;7.00;89.70;;;;;;5050503;28;20646;-73
2022/02/15 18:27:33;;;;;;;5.97;3.10;;;7.00;1.00;;;;;;5048556;28;20207;-73
2022/02/15 18:30:00;;;;;;;6.10;3.70;;;7.10;1.00;;;;;;5055361;28;20194;-73
2022/02/15 18:32:27;;;;;;;4.80;3.33;;;7.00;1.00;;;;;;5051601;28;20207;-75
2022/02/15 18:34:54;;;;;;;4.63;3.40;;;6.90;88.40;;;;;;5043167;28;20286;-75
2022/02/15 18:37:23;;;;;;;6.97;4.10;;;7.00;1.00;;;;;;5047981;28;20604;-75
2022/02/15 18:39:52;;;;;;;4.63;3.00;;;6.90;99.90;;;;;;5051012;28;20219;-75
2022/02/15 18:42:21;;;;;;;5.77;3.10;;;6.90;97.40;;;;;;5051906;28;20198;-75
2022/02/15 18:44:48;;;;;;;5.87;3.07;;;7.00;1.00;;;;;;5051178;28;20203;-76
2022/02/15 18:47:15;;;;;;;4.67;3.57;;;6.90;90.40;;;;;;5053316;28;20207;-73
2022/02/15 18:49:43;;;;;;;3.60;3.07;;;6.90;54.30;;;;;;5052303;28;20199;-73
2022/02/15 18:52:10;;;;;;;4.87;2.83;;;6.90;98.70;;;;;;5051084;28;20384;-76
2022/02/15 18:54:38;;;;;;;4.50;2.80;;;6.90;99.90;;;;;;5052392;28;20203;-75
2022/02/15 18:57:06;;;;;;;5.50;2.73;;;7.00;52.10;;;;;;5051450;28;20289;-75
2022/02/15 18:59:33;;;;;;;6.17;3.20;;;6.90;84.30;;;;;;5049583;28;20222;-75
2022/02/15 19:02:00;;;;;;;3.43;2.37;;;7.10;1.00;;;;;;5054795;28;20205;-75
2022/02/15 19:04:28;;;;;;;2.63;2.43;;;7.10;1.00;;;;;;5051292;28;20218;-75
2022/02/15 19:06:54;;;;;;;4.70;2.40;;;7.20;1.00;;;;;;5042958;28;20195;-75
2022/02/15 19:09:22;;;;;;;2.60;2.40;;;7.10;29.40;;;;;;5051326;28;20206;-75
2022/02/15 19:11:49;;;;;;;7.97;4.60;;;7.10;9.70;;;;;;5063443;28;20635;-75
2022/02/15 19:14:18;;;;;;;4.13;2.30;;;7.20;1.00;;;;;;5054001;28;20242;-75
2022/02/15 19:16:46;;;;;;;3.20;2.10;;;7.10;38.40;;;;;;5051917;28;20205;-75
2022/02/15 19:19:16;;;;;;;2.47;2.03;;;7.10;1.00;;;;;;5046594;28;20293;-75
2022/02/15 19:21:45;;;;;;;3.53;1.90;;;7.20;1.00;;;;;;5056188;28;20221;-75
2022/02/15 19:24:12;;;;;;;1.90;1.70;;;7.10;1.00;;;;;;5055446;28;20199;-75
2022/02/15 19:26:39;;;;;;;4.20;2.20;;;7.10;1.00;;;;;;5052812;28;20207;-75
2022/02/15 19:29:07;;;;;;;2.83;2.30;;;7.10;1.00;;;;;;5056721;28;20191;-75